Time;durP1;ratioP1;P1;durP2;ratioP2;P2;SDS_P1;SDS_P2;PMS_P1;PMS_P2;Temp;Humidity;BMP_temperature;BMP_pressure;BME280_temperature;BME280_humidity;BME280_pressure;Samples;Min_cycle;Max_cycle;Signal;HPM_P1;HPM_P2
2023/01/22 00:00:33;;;;;;;0.50;0.50;;;2.70;99.90;;;;;;5019626;28;20675;-90
2023/01/22 00:02:58;;;;;;;0.70;0.70;;;2.70;99.90;;;;;;5020643;28;20275;-88
2023/01/22 00:05:24;;;;;;;1.33;0.67;;;2.60;99.90;;;;;;5020170;28;20642;-90
2023/01/22 00:07:50;;;;;;;0.57;0.57;;;2.60;99.90;;;;;;5020596;28;20675;-91
2023/01/22 00:10:16;;;;;;;0.73;0.73;;;2.60;99.90;;;;;;5020102;28;20651;-91
2023/01/22 00:12:41;;;;;;;0.70;0.70;;;2.60;99.90;;;;;;5035334;28;20496;-91
2023/01/22 00:15:08;;;;;;;1.30;1.23;;;2.50;99.90;;;;;;5019255;28;20834;-91
2023/01/22 00:17:33;;;;;;;0.80;0.80;;;2.50;99.90;;;;;;5036258;28;20185;-90
2023/01/22 00:19:59;;;;;;;0.60;0.60;;;2.50;99.90;;;;;;5020079;28;20650;-91
2023/01/22 00:22:25;;;;;;;0.77;0.77;;;2.50;99.90;;;;;;5036559;28;20222;-90
2023/01/22 00:24:50;;;;;;;2.07;1.97;;;2.50;99.90;;;;;;5036011;28;20344;-90
2023/01/22 00:27:16;;;;;;;0.80;0.80;;;2.50;99.90;;;;;;5019218;28;20236;-91
2023/01/22 00:29:42;;;;;;;0.27;0.27;;;2.50;99.90;;;;;;5018997;28;20221;-92
2023/01/22 00:32:08;;;;;;;2.13;1.87;;;2.40;99.90;;;;;;5036229;28;20224;-91
2023/01/22 00:34:33;;;;;;;1.60;1.37;;;2.50;99.90;;;;;;5035657;28;20214;-91
2023/01/22 00:36:59;;;;;;;2.50;1.57;;;2.60;99.90;;;;;;5035725;28;20241;-91
2023/01/22 00:39:25;;;;;;;0.67;0.67;;;2.60;99.90;;;;;;5035902;28;20830;-91
2023/01/22 00:41:51;;;;;;;1.63;1.53;;;2.60;99.90;;;;;;5019218;28;20674;-90
2023/01/22 00:44:17;;;;;;;1.03;0.90;;;2.60;99.90;;;;;;5036186;28;20174;-90
2023/01/22 00:46:42;;;;;;;1.23;1.13;;;2.70;99.90;;;;;;5018892;28;20317;-91
2023/01/22 00:49:08;;;;;;;1.67;0.63;;;2.80;99.90;;;;;;5018474;28;20222;-92
2023/01/22 00:51:35;;;;;;;0.97;0.97;;;2.80;99.90;;;;;;5035604;28;20300;-91
2023/01/22 00:54:01;;;;;;;1.03;1.03;;;2.90;99.90;;;;;;5034870;28;20256;-91
2023/01/22 00:56:27;;;;;;;2.00;1.17;;;3.00;99.90;;;;;;5035387;28;20201;-91
2023/01/22 00:58:53;;;;;;;0.53;0.53;;;3.10;99.90;;;;;;5035733;28;20257;-91
2023/01/22 01:01:19;;;;;;;1.87;1.03;;;3.10;99.90;;;;;;5035067;28;20221;-91
2023/01/22 01:03:45;;;;;;;1.37;1.17;;;3.10;99.90;;;;;;5051516;28;20278;-91
2023/01/22 01:06:21;;;;;;;0.87;0.87;;;3.10;99.90;;;;;;5017134;28;20291;-90
2023/01/22 01:08:48;;;;;;;2.33;1.27;;;3.10;99.90;;;;;;5052621;28;20241;-91
2023/01/22 01:11:17;;;;;;;1.20;1.10;;;3.00;99.90;;;;;;5052062;28;20162;-91
2023/01/22 01:13:44;;;;;;;0.53;0.53;;;3.00;99.90;;;;;;5051377;28;20770;-92
2023/01/22 01:16:22;;;;;;;0.97;0.97;;;2.90;99.90;;;;;;5050983;28;20658;-91
2023/01/22 01:18:48;;;;;;;0.67;0.67;;;3.00;99.90;;;;;;5050954;28;20222;-91
2023/01/22 01:21:15;;;;;;;0.80;0.80;;;3.10;99.90;;;;;;5050711;28;20222;-91
2023/01/22 01:23:41;;;;;;;1.13;1.13;;;3.10;99.90;;;;;;5026986;28;20186;-92
2023/01/22 01:26:10;;;;;;;0.63;0.60;;;3.10;99.90;;;;;;5034737;28;20185;-91
2023/01/22 01:28:37;;;;;;;0.87;0.87;;;3.00;99.90;;;;;;5051365;28;20245;-91
2023/01/22 01:31:04;;;;;;;1.00;0.97;;;2.90;99.90;;;;;;5027389;28;20225;-91
2023/01/22 01:33:30;;;;;;;0.40;0.40;;;2.90;99.90;;;;;;5033827;28;20256;-91
2023/01/22 01:36:06;;;;;;;6.43;1.20;;;2.80;99.90;;;;;;5050531;28;20214;-91
2023/01/22 01:38:32;;;;;;;1.20;1.20;;;2.90;99.90;;;;;;5053160;28;20228;-91
2023/01/22 01:40:58;;;;;;;1.70;1.37;;;2.90;99.90;;;;;;5044695;28;20198;-91
2023/01/22 01:43:24;;;;;;;0.83;0.83;;;3.00;99.90;;;;;;5038985;28;20218;-91
2023/01/22 01:45:50;;;;;;;0.63;0.63;;;3.00;99.90;;;;;;5037735;28;20217;-91
2023/01/22 01:48:39;;;;;;;1.17;1.17;;;2.90;99.90;;;;;;5056040;28;20225;-91
2023/01/22 01:51:28;;;;;;;0.63;0.57;;;2.90;99.90;;;;;;5054613;28;20209;-91
2023/01/22 01:53:55;;;;;;;7.00;1.77;;;2.80;99.90;;;;;;5051253;28;20271;-91
2023/01/22 01:56:29;;;;;;;0.80;0.80;;;2.80;99.90;;;;;;5052631;28;20178;-90
2023/01/22 01:58:59;;;;;;;2.57;2.47;;;2.70;99.90;;;;;;5052286;28;20194;-91
2023/01/22 02:01:26;;;;;;;2.47;1.80;;;2.80;99.90;;;;;;5050838;28;20214;-91
2023/01/22 02:03:52;;;;;;;1.27;1.27;;;2.80;99.90;;;;;;5034450;28;20755;-92
2023/01/22 02:06:19;;;;;;;0.90;0.90;;;2.80;99.90;;;;;;5049166;28;20213;-89
2023/01/22 02:08:48;;;;;;;0.80;0.80;;;2.90;99.90;;;;;;5033898;28;20221;-91
2023/01/22 02:11:16;;;;;;;1.93;1.63;;;2.90;99.90;;;;;;5050640;28;20232;-90
2023/01/22 02:13:48;;;;;;;0.93;0.93;;;2.90;99.90;;;;;;5050213;28;20246;-91
2023/01/22 02:16:14;;;;;;;0.80;0.80;;;2.90;99.90;;;;;;5049630;28;20217;-92
2023/01/22 02:18:40;;;;;;;1.47;1.23;;;2.90;99.90;;;;;;5050259;28;20228;-90
2023/01/22 02:21:42;;;;;;;0.93;0.93;;;2.80;99.90;;;;;;5033125;28;20583;-91
2023/01/22 02:24:13;;;;;;;1.03;1.03;;;2.70;99.90;;;;;;5050073;28;20218;-92
2023/01/22 02:26:40;;;;;;;0.77;0.77;;;2.60;99.90;;;;;;5049583;28;20623;-91
2023/01/22 02:29:08;;;;;;;1.17;0.90;;;2.50;99.90;;;;;;5050713;28;20174;-91
2023/01/22 02:31:37;;;;;;;0.50;0.50;;;2.50;99.90;;;;;;5050667;28;20279;-90
2023/01/22 02:34:04;;;;;;;0.97;0.73;;;2.40;99.90;;;;;;5049839;28;20217;-90
2023/01/22 02:36:32;;;;;;;1.20;1.20;;;2.40;99.90;;;;;;5049853;28;20317;-91
2023/01/22 02:38:58;;;;;;;1.37;1.27;;;2.30;99.90;;;;;;5033107;28;20467;-91
2023/01/22 02:41:25;;;;;;;1.07;0.97;;;2.30;99.90;;;;;;5049680;28;20273;-90
2023/01/22 02:43:51;;;;;;;0.87;0.87;;;2.30;99.90;;;;;;5033795;28;20188;-91
2023/01/22 02:46:18;;;;;;;0.50;0.50;;;2.30;99.90;;;;;;5032799;28;20206;-91
2023/01/22 02:48:43;;;;;;;0.80;0.80;;;2.20;99.90;;;;;;5049605;28;20234;-91
2023/01/22 02:51:09;;;;;;;0.87;0.87;;;2.30;99.90;;;;;;5032765;28;20725;-90
2023/01/22 02:53:35;;;;;;;0.80;0.80;;;2.30;99.90;;;;;;5049637;28;20304;-91
2023/01/22 02:56:08;;;;;;;1.70;1.60;;;2.30;99.90;;;;;;5033288;28;20201;-90
2023/01/22 02:58:34;;;;;;;0.77;0.73;;;2.40;99.90;;;;;;5033043;28;20292;-91
2023/01/22 03:01:21;;;;;;;0.93;0.67;;;2.40;99.90;;;;;;5049685;28;20210;-89
2023/01/22 03:04:12;;;;;;;0.70;0.70;;;2.50;99.90;;;;;;5050110;28;20357;-91
2023/01/22 03:06:43;;;;;;;0.53;0.53;;;2.70;99.90;;;;;;5049749;28;20210;-91
2023/01/22 03:09:11;;;;;;;4.73;1.57;;;2.90;99.90;;;;;;5049585;28;20228;-90
2023/01/22 03:11:39;;;;;;;0.70;0.70;;;2.90;99.90;;;;;;5050380;28;20186;-91
2023/01/22 03:22:18;;;;;;;0.90;0.90;;;2.80;99.90;;;;;;5052143;28;20213;-89
2023/01/22 03:24:50;;;;;;;0.57;0.57;;;2.90;99.90;;;;;;5049361;28;20650;-91
2023/01/22 03:27:17;;;;;;;0.90;0.90;;;2.90;99.90;;;;;;5032880;28;20264;-89
2023/01/22 03:29:44;;;;;;;0.80;0.50;;;2.90;99.90;;;;;;5053829;28;20245;-90
2023/01/22 03:32:10;;;;;;;0.67;0.67;;;2.90;99.90;;;;;;5053700;28;20182;-90
2023/01/22 03:34:36;;;;;;;0.73;0.73;;;3.00;99.90;;;;;;5038412;28;20320;-88
2023/01/22 03:37:02;;;;;;;0.50;0.50;;;3.00;99.90;;;;;;5056114;28;20275;-89
2023/01/22 03:39:30;;;;;;;0.60;0.60;;;3.00;99.90;;;;;;5038338;28;20217;-92
2023/01/22 03:41:56;;;;;;;0.80;0.80;;;3.00;99.90;;;;;;5052958;28;20233;-90
2023/01/22 03:44:22;;;;;;;1.23;0.83;;;3.10;99.90;;;;;;5052957;28;20216;-90
2023/01/22 03:46:48;;;;;;;1.00;1.00;;;3.10;99.90;;;;;;5035696;28;20787;-90
2023/01/22 03:49:14;;;;;;;1.27;1.17;;;3.10;99.90;;;;;;5051923;28;20218;-91
2023/01/22 03:51:40;;;;;;;0.70;0.70;;;3.10;99.90;;;;;;5052956;28;20567;-89
2023/01/22 03:54:08;;;;;;;1.17;0.63;;;3.10;99.90;;;;;;5052953;28;20230;-91
2023/01/22 03:56:34;;;;;;;0.67;0.67;;;3.00;99.90;;;;;;5052243;28;20205;-91
2023/01/22 03:59:00;;;;;;;0.40;0.40;;;3.00;99.90;;;;;;5020194;28;20185;-91
2023/01/22 04:01:27;;;;;;;1.00;1.00;;;3.00;99.90;;;;;;5035925;28;20222;-90
2023/01/22 04:03:53;;;;;;;0.70;0.70;;;3.00;99.90;;;;;;5035829;28;20761;-91
2023/01/22 04:06:21;;;;;;;2.27;0.70;;;3.00;99.90;;;;;;5052702;28;20685;-90
2023/01/22 04:08:48;;;;;;;0.60;0.60;;;3.00;99.90;;;;;;5052795;28;20694;-91
2023/01/22 04:11:15;;;;;;;0.83;0.83;;;3.00;99.90;;;;;;5054032;28;20177;-90
2023/01/22 04:13:42;;;;;;;0.40;0.40;;;3.00;99.90;;;;;;5035860;28;20321;-90
2023/01/22 04:16:09;;;;;;;0.80;0.80;;;3.00;99.90;;;;;;5052431;28;20711;-89
2023/01/22 04:18:35;;;;;;;0.37;0.37;;;3.00;99.90;;;;;;5019607;28;20222;-90
2023/01/22 04:21:01;;;;;;;1.17;1.17;;;2.90;99.90;;;;;;5052526;28;20230;-92
2023/01/22 04:23:27;;;;;;;0.20;0.20;;;2.90;99.90;;;;;;5052238;28;20182;-90
2023/01/22 04:25:53;;;;;;;0.57;0.57;;;2.90;99.90;;;;;;5036294;28;20182;-91
2023/01/22 04:28:19;;;;;;;0.40;0.40;;;2.90;99.90;;;;;;5035464;28;20214;-90
2023/01/22 04:30:48;;;;;;;0.60;0.60;;;2.90;99.90;;;;;;5035371;28;20241;-91
2023/01/22 04:33:13;;;;;;;0.53;0.53;;;2.90;99.90;;;;;;5053007;28;20209;-91
2023/01/22 04:35:41;;;;;;;0.50;0.50;;;2.90;99.90;;;;;;5019275;28;20177;-92
2023/01/22 04:38:08;;;;;;;0.60;0.60;;;2.90;99.90;;;;;;5052749;28;20190;-89
2023/01/22 04:40:34;;;;;;;0.30;0.30;;;2.90;99.90;;;;;;5051818;28;20214;-91
2023/01/22 04:43:01;;;;;;;0.40;0.40;;;2.90;99.90;;;;;;5051962;28;20327;-91
2023/01/22 04:45:26;;;;;;;0.77;0.77;;;2.80;99.90;;;;;;5035620;28;20214;-91
2023/01/22 04:47:52;;;;;;;0.93;0.93;;;2.80;99.90;;;;;;5051850;28;20222;-91
2023/01/22 04:50:22;;;;;;;0.83;0.70;;;2.70;99.90;;;;;;5035717;28;20531;-90
2023/01/22 04:52:52;;;;;;;0.53;0.50;;;2.70;99.90;;;;;;5052256;28;20675;-92
2023/01/22 04:55:18;;;;;;;0.60;0.60;;;2.70;99.90;;;;;;5052047;28;20238;-90
2023/01/22 04:57:44;;;;;;;0.57;0.57;;;2.70;99.90;;;;;;5051167;28;20270;-90
2023/01/22 05:00:13;;;;;;;0.87;0.87;;;2.70;99.90;;;;;;5034993;28;20667;-91
2023/01/22 05:02:39;;;;;;;1.00;1.00;;;2.70;99.90;;;;;;5051481;28;20170;-91
2023/01/22 05:05:06;;;;;;;0.90;0.90;;;2.70;99.90;;;;;;5035468;28;20174;-90
2023/01/22 05:07:32;;;;;;;0.70;0.70;;;2.70;99.90;;;;;;5051639;28;20221;-90
2023/01/22 05:09:58;;;;;;;1.23;1.20;;;2.70;99.90;;;;;;5034175;28;20283;-91
2023/01/22 05:12:24;;;;;;;0.60;0.60;;;2.70;99.90;;;;;;5034545;28;20213;-90
2023/01/22 05:14:50;;;;;;;0.77;0.73;;;2.60;99.90;;;;;;5034732;28;20209;-91
2023/01/22 05:17:16;;;;;;;1.27;1.17;;;2.70;99.90;;;;;;5035491;28;20185;-91
2023/01/22 05:19:42;;;;;;;0.67;0.67;;;2.60;99.90;;;;;;5051541;28;20201;-91
2023/01/22 05:22:08;;;;;;;0.90;0.90;;;2.70;99.90;;;;;;5034694;28;20240;-91
2023/01/22 05:24:33;;;;;;;0.67;0.50;;;2.70;99.90;;;;;;5051700;28;20220;-90
2023/01/22 05:26:59;;;;;;;0.50;0.50;;;2.60;99.90;;;;;;5034309;28;20249;-91
2023/01/22 05:29:26;;;;;;;0.60;0.60;;;2.60;99.90;;;;;;5018484;28;20193;-91
2023/01/22 05:31:52;;;;;;;0.77;0.77;;;2.60;99.90;;;;;;5051663;28;20197;-90
2023/01/22 05:34:19;;;;;;;0.57;0.57;;;2.70;99.90;;;;;;5050765;28;20689;-91
2023/01/22 05:36:45;;;;;;;1.10;1.07;;;2.70;99.90;;;;;;5034404;28;20234;-90
2023/01/22 05:39:10;;;;;;;0.67;0.67;;;2.70;99.90;;;;;;5050850;28;20248;-90
2023/01/22 05:41:36;;;;;;;2.13;1.00;;;2.60;99.90;;;;;;5017780;28;20269;-91
2023/01/22 05:44:03;;;;;;;1.20;1.10;;;2.60;99.90;;;;;;5051582;28;20575;-90
2023/01/22 05:46:29;;;;;;;0.77;0.77;;;2.50;99.90;;;;;;5051370;28;20217;-92
2023/01/22 05:48:55;;;;;;;1.13;1.13;;;2.50;99.90;;;;;;5034401;28;20229;-90
2023/01/22 05:51:22;;;;;;;0.87;0.87;;;2.50;99.90;;;;;;5033384;28;20706;-91
2023/01/22 05:53:47;;;;;;;0.67;0.67;;;2.50;99.90;;;;;;5049735;28;20226;-89
2023/01/22 05:56:13;;;;;;;0.67;0.67;;;2.50;99.90;;;;;;5033501;28;20205;-91
2023/01/22 05:58:39;;;;;;;0.57;0.57;;;2.50;99.90;;;;;;5034025;28;20221;-90
2023/01/22 06:01:05;;;;;;;0.40;0.40;;;2.40;99.90;;;;;;5050628;28;20291;-91
2023/01/22 06:03:31;;;;;;;2.73;2.63;;;2.40;99.90;;;;;;5033996;28;20221;-90
2023/01/22 06:06:04;;;;;;;1.03;1.03;;;2.40;99.90;;;;;;5033581;28;20228;-91
2023/01/22 06:08:31;;;;;;;1.20;0.97;;;2.40;99.90;;;;;;5050388;28;20694;-91
2023/01/22 06:11:10;;;;;;;1.50;1.47;;;2.40;99.90;;;;;;5050439;28;20177;-90
2023/01/22 06:13:36;;;;;;;0.70;0.70;;;2.40;99.90;;;;;;5051149;28;20222;-90
2023/01/22 06:16:02;;;;;;;0.83;0.83;;;2.40;99.90;;;;;;5051255;28;20259;-90
2023/01/22 06:18:28;;;;;;;0.73;0.73;;;2.40;99.90;;;;;;5051288;28;20218;-90
2023/01/22 06:20:59;;;;;;;0.60;0.60;;;2.50;99.90;;;;;;5049916;28;20554;-90
2023/01/22 06:23:26;;;;;;;0.53;0.53;;;2.50;99.90;;;;;;5050010;28;20236;-91
2023/01/22 06:25:53;;;;;;;0.70;0.70;;;2.50;99.90;;;;;;5018903;28;20180;-90
2023/01/22 06:28:19;;;;;;;2.33;0.80;;;2.50;99.90;;;;;;5051919;28;20313;-90
2023/01/22 06:30:45;;;;;;;2.33;2.13;;;2.60;99.90;;;;;;5050999;28;20221;-90
2023/01/22 06:33:11;;;;;;;0.60;0.60;;;2.60;99.90;;;;;;5053101;28;20776;-90
2023/01/22 06:35:37;;;;;;;0.53;0.53;;;2.50;99.90;;;;;;5053079;28;20181;-89
2023/01/22 06:38:03;;;;;;;1.80;1.63;;;2.50;99.90;;;;;;5050036;28;20189;-91
2023/01/22 06:40:29;;;;;;;1.00;1.00;;;2.60;99.90;;;;;;5049446;28;20245;-90
2023/01/22 06:42:56;;;;;;;0.97;0.97;;;2.60;99.90;;;;;;5017003;28;20675;-90
2023/01/22 06:45:23;;;;;;;0.40;0.40;;;2.60;99.90;;;;;;5017233;28;20214;-89
2023/01/22 06:47:48;;;;;;;0.63;0.63;;;2.70;99.90;;;;;;5033531;28;20232;-89
2023/01/22 06:50:15;;;;;;;0.50;0.50;;;2.80;99.90;;;;;;5051288;28;20178;-89
2023/01/22 06:52:41;;;;;;;1.00;1.00;;;2.70;99.90;;;;;;5048795;28;20472;-90
2023/01/22 06:55:07;;;;;;;0.30;0.30;;;2.70;99.90;;;;;;5048424;28;20702;-90
2023/01/22 06:57:33;;;;;;;1.17;1.07;;;2.60;99.90;;;;;;5032403;28;20226;-91
2023/01/22 06:59:59;;;;;;;0.60;0.60;;;2.60;99.90;;;;;;5032875;28;20236;-91
2023/01/22 07:02:25;;;;;;;0.53;0.53;;;2.50;99.90;;;;;;5032680;28;20178;-90
2023/01/22 07:04:51;;;;;;;0.63;0.50;;;2.50;99.90;;;;;;5049820;28;20644;-89
2023/01/22 07:07:17;;;;;;;0.87;0.87;;;2.40;99.90;;;;;;5048933;28;20887;-90
2023/01/22 07:09:42;;;;;;;0.77;0.77;;;2.40;99.90;;;;;;5032630;28;20221;-91
2023/01/22 07:12:08;;;;;;;0.40;0.40;;;2.40;99.90;;;;;;5048688;28;20445;-92
2023/01/22 07:14:34;;;;;;;1.27;1.17;;;2.40;99.90;;;;;;5049656;28;20379;-90
2023/01/22 07:17:00;;;;;;;2.17;2.00;;;2.50;99.90;;;;;;5032694;28;20178;-90
2023/01/22 07:19:29;;;;;;;0.97;0.90;;;2.50;99.90;;;;;;5032001;28;20844;-91
2023/01/22 07:21:54;;;;;;;0.60;0.60;;;2.50;99.90;;;;;;5032638;28;20231;-92
2023/01/22 07:24:20;;;;;;;0.40;0.40;;;2.50;99.90;;;;;;5031740;28;20214;-91
2023/01/22 07:26:47;;;;;;;0.40;0.40;;;2.60;99.90;;;;;;5031533;28;20236;-91
2023/01/22 07:29:13;;;;;;;0.90;0.90;;;2.60;99.90;;;;;;5049934;28;20381;-91
2023/01/22 07:31:39;;;;;;;0.93;0.93;;;2.60;99.90;;;;;;5046951;28;20218;-90
2023/01/22 07:34:05;;;;;;;1.13;0.70;;;2.60;99.90;;;;;;5031673;28;20245;-91
2023/01/22 07:36:31;;;;;;;0.90;0.90;;;2.50;99.90;;;;;;5047979;28;20225;-89
2023/01/22 07:38:57;;;;;;;0.83;0.83;;;2.50;99.90;;;;;;5047861;28;20279;-90
2023/01/22 07:41:23;;;;;;;2.37;0.83;;;2.60;99.90;;;;;;5016061;28;20235;-88
2023/01/22 07:43:49;;;;;;;0.50;0.50;;;2.60;99.90;;;;;;5032422;28;20627;-89
2023/01/22 07:46:15;;;;;;;0.53;0.50;;;2.60;99.90;;;;;;5048598;28;20591;-88
2023/01/22 07:48:41;;;;;;;0.43;0.43;;;2.60;99.90;;;;;;5016063;28;20315;-88
2023/01/22 07:51:07;;;;;;;0.50;0.50;;;2.60;99.90;;;;;;5048816;28;20229;-88
2023/01/22 07:53:33;;;;;;;1.23;1.13;;;2.60;99.90;;;;;;5048730;28;20178;-88
2023/01/22 07:56:04;;;;;;;0.97;0.97;;;2.60;99.90;;;;;;5049135;28;20299;-90
2023/01/22 07:58:31;;;;;;;1.07;1.07;;;2.60;99.90;;;;;;5048867;28;20271;-91
2023/01/22 08:00:56;;;;;;;0.60;0.60;;;2.60;99.90;;;;;;5031918;28;20225;-89
2023/01/22 08:03:22;;;;;;;0.37;0.37;;;2.60;99.90;;;;;;5031723;28;20221;-89
2023/01/22 08:05:48;;;;;;;0.53;0.53;;;2.60;99.90;;;;;;5048709;28;20214;-90
2023/01/22 08:08:16;;;;;;;0.30;0.30;;;2.60;99.90;;;;;;5032787;28;20248;-90
2023/01/22 08:10:43;;;;;;;0.43;0.43;;;2.60;99.90;;;;;;5049744;28;20237;-91
2023/01/22 08:13:09;;;;;;;0.50;0.50;;;2.60;99.90;;;;;;5032542;28;20604;-89
2023/01/22 08:15:35;;;;;;;1.27;1.23;;;2.60;99.90;;;;;;5034808;28;20222;-90
2023/01/22 08:18:01;;;;;;;0.30;0.30;;;2.70;99.90;;;;;;5052477;28;20218;-90
2023/01/22 08:20:27;;;;;;;0.73;0.73;;;2.70;99.90;;;;;;5051954;28;20702;-90
2023/01/22 08:22:58;;;;;;;0.70;0.70;;;2.70;99.90;;;;;;5052839;28;20221;-90
2023/01/22 08:25:24;;;;;;;1.20;1.10;;;2.70;99.90;;;;;;5053156;28;20300;-90
2023/01/22 08:27:50;;;;;;;0.30;0.30;;;2.70;99.90;;;;;;5053309;28;20222;-91
2023/01/22 08:30:16;;;;;;;0.40;0.40;;;2.80;99.90;;;;;;5052326;28;20249;-90
2023/01/22 08:32:44;;;;;;;0.50;0.50;;;2.70;99.90;;;;;;5019328;28;20270;-90
2023/01/22 08:35:10;;;;;;;1.00;1.00;;;2.80;99.90;;;;;;5036253;28;20647;-91
2023/01/22 08:37:36;;;;;;;0.63;0.63;;;2.80;99.90;;;;;;5053129;28;20213;-89
2023/01/22 08:40:03;;;;;;;0.30;0.30;;;2.80;99.90;;;;;;5034935;28;20725;-89
2023/01/22 08:42:29;;;;;;;0.30;0.30;;;2.80;99.90;;;;;;5052722;28;20298;-89
2023/01/22 08:44:55;;;;;;;1.63;1.57;;;2.80;99.90;;;;;;5035368;28;20371;-90
2023/01/22 08:47:21;;;;;;;7.10;1.37;;;2.70;99.90;;;;;;5035846;28;20214;-90
2023/01/22 08:49:46;;;;;;;1.33;0.60;;;2.70;99.90;;;;;;5051979;28;20222;-90
2023/01/22 08:52:12;;;;;;;0.70;0.70;;;2.80;99.90;;;;;;5051284;28;20597;-89
2023/01/22 08:54:38;;;;;;;0.60;0.60;;;2.80;99.90;;;;;;5033958;28;20253;-91
2023/01/22 08:57:04;;;;;;;2.50;2.30;;;2.80;99.90;;;;;;5017914;28;20217;-89
2023/01/22 08:59:30;;;;;;;2.03;0.90;;;2.70;99.90;;;;;;5017882;28;20185;-88
2023/01/22 09:02:00;;;;;;;0.60;0.60;;;2.70;99.90;;;;;;5052003;28;20182;-88
2023/01/22 09:04:26;;;;;;;2.60;1.40;;;2.70;99.90;;;;;;5051291;28;20218;-89
2023/01/22 09:06:51;;;;;;;0.70;0.70;;;2.80;99.90;;;;;;5052382;28;20214;-89
2023/01/22 09:09:17;;;;;;;2.13;1.17;;;2.90;99.90;;;;;;5050665;28;20558;-90
2023/01/22 09:11:45;;;;;;;1.47;1.37;;;2.80;99.90;;;;;;5017295;28;20218;-90
2023/01/22 09:14:11;;;;;;;0.73;0.63;;;2.80;99.90;;;;;;5035329;28;20179;-89
2023/01/22 09:16:37;;;;;;;0.83;0.83;;;2.80;99.90;;;;;;5049997;28;20214;-90
2023/01/22 09:19:04;;;;;;;1.10;1.10;;;2.80;99.90;;;;;;5050338;28;20221;-89
2023/01/22 09:21:30;;;;;;;0.30;0.30;;;2.80;99.90;;;;;;5031290;28;20214;-90
2023/01/22 09:23:55;;;;;;;0.50;0.50;;;2.80;99.90;;;;;;5050963;28;20221;-89
2023/01/22 09:26:22;;;;;;;1.70;0.50;;;2.90;99.90;;;;;;5033315;28;20178;-90
2023/01/22 09:28:48;;;;;;;0.93;0.73;;;2.90;99.90;;;;;;5015008;28;20486;-89
2023/01/22 09:31:14;;;;;;;0.50;0.50;;;2.90;99.90;;;;;;5050924;28;20244;-90
2023/01/22 09:33:40;;;;;;;0.80;0.80;;;2.90;99.90;;;;;;5050538;28;20271;-90
2023/01/22 09:36:07;;;;;;;0.63;0.63;;;2.90;99.90;;;;;;5033956;28;20213;-92
2023/01/22 09:38:33;;;;;;;0.60;0.60;;;3.00;99.90;;;;;;5049421;28;20221;-90
2023/01/22 09:41:03;;;;;;;0.50;0.50;;;2.90;99.90;;;;;;5051754;28;20307;-90
2023/01/22 09:43:32;;;;;;;11.93;1.10;;;2.90;99.90;;;;;;5051146;28;20262;-89
2023/01/22 09:46:01;;;;;;;1.40;0.57;;;2.90;99.90;;;;;;5052841;28;20224;-87
2023/01/22 09:48:35;;;;;;;0.63;0.63;;;3.00;99.90;;;;;;5053673;28;20226;-93
2023/01/22 09:51:01;;;;;;;0.30;0.30;;;3.00;99.90;;;;;;5051278;28;20725;-91
2023/01/22 09:53:29;;;;;;;0.37;0.37;;;3.00;99.90;;;;;;5052136;28;20247;-91
2023/01/22 09:55:56;;;;;;;4.73;1.23;;;3.00;99.90;;;;;;5034775;28;20328;-91
2023/01/22 09:58:24;;;;;;;0.43;0.43;;;3.10;99.90;;;;;;5033156;28;20275;-91
2023/01/22 10:00:54;;;;;;;3.93;1.57;;;3.10;99.90;;;;;;5054272;28;20218;-89
2023/01/22 10:03:28;;;;;;;0.80;0.80;;;3.10;99.90;;;;;;5049831;28;20218;-93
2023/01/22 10:06:12;;;;;;;5.00;0.93;;;3.20;99.90;;;;;;5050550;28;20222;-90
2023/01/22 10:09:03;;;;;;;0.60;0.60;;;3.10;99.90;;;;;;5048380;28;20197;-91
2023/01/22 10:11:29;;;;;;;0.90;0.90;;;3.10;99.90;;;;;;5049220;28;20615;-90
2023/01/22 10:13:58;;;;;;;0.43;0.43;;;3.10;99.90;;;;;;5050484;28;20178;-93
2023/01/22 10:16:24;;;;;;;1.43;1.33;;;3.00;99.90;;;;;;5050697;28;20458;-90
2023/01/22 10:19:11;;;;;;;0.30;0.30;;;3.10;99.90;;;;;;5050405;28;20349;-88
2023/01/22 10:21:48;;;;;;;1.20;1.10;;;3.10;99.90;;;;;;5049345;28;20217;-90
2023/01/22 10:24:14;;;;;;;2.07;1.97;;;3.10;99.90;;;;;;5049530;28;20349;-91
2023/01/22 10:26:53;;;;;;;0.90;0.90;;;3.10;99.90;;;;;;5050766;28;20647;-90
2023/01/22 10:29:32;;;;;;;1.80;0.93;;;3.10;99.90;;;;;;5050331;28;20276;-89
2023/01/22 10:32:04;;;;;;;1.10;1.00;;;3.20;99.90;;;;;;5050375;28;20209;-90
2023/01/22 10:34:34;;;;;;;1.17;1.17;;;3.20;99.90;;;;;;5049210;28;20218;-90
2023/01/22 10:37:18;;;;;;;1.07;1.00;;;3.30;99.90;;;;;;5047209;28;20213;-90
2023/01/22 10:39:46;;;;;;;4.90;2.10;;;3.30;99.90;;;;;;5048717;28;20289;-92
2023/01/22 10:42:23;;;;;;;1.03;1.03;;;3.30;99.90;;;;;;5048686;28;20229;-90
2023/01/22 10:44:53;;;;;;;0.90;0.90;;;3.30;99.90;;;;;;5048465;28;20283;-90
2023/01/22 10:47:22;;;;;;;2.43;1.37;;;3.30;99.90;;;;;;5048756;28;20202;-91
2023/01/22 10:49:59;;;;;;;0.73;0.73;;;3.30;99.90;;;;;;5050055;28;20216;-90
2023/01/22 10:52:53;;;;;;;1.37;1.33;;;3.20;99.90;;;;;;5048898;28;20278;-90
2023/01/22 10:55:23;;;;;;;0.63;0.63;;;3.30;99.90;;;;;;5044593;28;20242;-90
2023/01/22 10:57:56;;;;;;;0.77;0.77;;;3.20;99.90;;;;;;5047849;28;20218;-90
2023/01/22 11:00:31;;;;;;;1.17;1.07;;;3.30;99.90;;;;;;5049095;28;20221;-91
2023/01/22 11:02:57;;;;;;;1.40;0.80;;;3.30;99.90;;;;;;5048723;28;20208;-92
2023/01/22 11:05:26;;;;;;;0.93;0.93;;;3.30;99.90;;;;;;5048694;28;20590;-88
2023/01/22 11:07:57;;;;;;;0.70;0.70;;;3.40;99.90;;;;;;5049014;28;20663;-89
2023/01/22 11:10:35;;;;;;;0.73;0.73;;;3.40;99.90;;;;;;5048373;28;20240;-91
2023/01/22 11:13:23;;;;;;;0.80;0.80;;;3.30;99.90;;;;;;5048455;28;20210;-90
2023/01/22 11:15:54;;;;;;;0.53;0.53;;;3.30;99.90;;;;;;5047882;28;20218;-88
2023/01/22 11:18:35;;;;;;;0.50;0.50;;;3.20;99.90;;;;;;5047862;28;20324;-89
2023/01/22 11:21:04;;;;;;;2.90;1.93;;;3.30;99.90;;;;;;5049290;28;20310;-93
2023/01/22 11:23:57;;;;;;;1.03;1.03;;;3.30;99.90;;;;;;5048617;28;20181;-91
2023/01/22 11:26:44;;;;;;;0.90;0.90;;;3.40;99.90;;;;;;5048984;28;20170;-89
2023/01/22 11:29:31;;;;;;;0.40;0.40;;;3.40;99.90;;;;;;5047581;28;20213;-90
2023/01/22 11:32:07;;;;;;;0.60;0.60;;;3.20;99.90;;;;;;5047360;28;20331;-89
2023/01/22 11:34:33;;;;;;;2.33;1.70;;;3.30;99.90;;;;;;5048284;28;20240;-91
2023/01/22 11:37:14;;;;;;;0.57;0.57;;;3.30;99.90;;;;;;5047372;28;20690;-91
2023/01/22 11:40:06;;;;;;;0.97;0.97;;;3.30;99.90;;;;;;5047610;28;20234;-92
2023/01/22 11:42:49;;;;;;;0.50;0.50;;;3.40;99.90;;;;;;5047338;28;20222;-90
2023/01/22 11:45:46;;;;;;;1.67;1.67;;;3.40;99.90;;;;;;5047991;28;20243;-90
2023/01/22 11:48:45;;;;;;;0.67;0.67;;;3.30;99.90;;;;;;5047188;28;20225;-92
2023/01/22 11:51:19;;;;;;;4.07;2.00;;;3.30;99.90;;;;;;5053594;28;20278;-92
2023/01/22 11:54:11;;;;;;;1.00;0.90;;;3.30;99.90;;;;;;5051820;28;20539;-90
2023/01/22 11:56:55;;;;;;;1.10;1.10;;;3.30;99.90;;;;;;5051603;28;20289;-89
2023/01/22 11:59:21;;;;;;;0.40;0.40;;;3.30;99.90;;;;;;5052414;28;20250;-91
2023/01/22 12:02:33;;;;;;;0.90;0.90;;;3.30;99.90;;;;;;5051327;28;20233;-90
2023/01/22 12:05:11;;;;;;;0.37;0.37;;;3.30;99.90;;;;;;5052535;28;20675;-90
2023/01/22 12:07:44;;;;;;;1.03;1.03;;;3.40;99.90;;;;;;5050040;28;20229;-89
2023/01/22 12:10:31;;;;;;;1.13;1.13;;;3.30;99.90;;;;;;5051508;28;20279;-91
2023/01/22 12:13:11;;;;;;;0.50;0.50;;;3.20;99.90;;;;;;5051388;28;20682;-90
2023/01/22 12:15:51;;;;;;;0.33;0.33;;;3.20;99.90;;;;;;5052066;28;20679;-89
2023/01/22 12:18:42;;;;;;;0.70;0.70;;;3.20;99.90;;;;;;5050903;28;20221;-91
2023/01/22 12:21:36;;;;;;;0.60;0.60;;;3.30;99.90;;;;;;5052145;28;20217;-92
2023/01/22 12:24:17;;;;;;;0.67;0.60;;;3.30;99.90;;;;;;5052028;28;20309;-91
2023/01/22 12:27:16;;;;;;;0.40;0.40;;;3.50;99.90;;;;;;5051456;28;20228;-91
2023/01/22 12:29:52;;;;;;;0.63;0.63;;;3.60;99.90;;;;;;5052840;28;20186;-90
2023/01/22 12:32:20;;;;;;;1.00;1.00;;;3.60;99.90;;;;;;5052586;28;20178;-90
2023/01/22 12:35:07;;;;;;;0.40;0.40;;;3.60;99.90;;;;;;5052276;28;20229;-89
2023/01/22 12:37:42;;;;;;;0.67;0.67;;;3.60;99.90;;;;;;5051790;28;20218;-88
2023/01/22 12:40:30;;;;;;;0.93;0.93;;;3.60;99.90;;;;;;5052356;28;20209;-91
2023/01/22 12:43:05;;;;;;;1.23;1.10;;;3.60;99.90;;;;;;5051103;28;20217;-91
2023/01/22 12:45:39;;;;;;;0.67;0.67;;;3.80;99.90;;;;;;5051691;28;20292;-91
2023/01/22 12:48:24;;;;;;;2.20;0.70;;;3.80;99.90;;;;;;5050519;28;20242;-91
2023/01/22 12:50:53;;;;;;;1.03;0.93;;;3.90;99.90;;;;;;5051572;28;20217;-91
2023/01/22 12:53:33;;;;;;;0.67;0.67;;;3.90;99.90;;;;;;5052610;28;20189;-91
2023/01/22 12:56:07;;;;;;;0.90;0.90;;;3.70;99.90;;;;;;5051876;28;20265;-91
2023/01/22 12:58:39;;;;;;;1.10;1.07;;;3.80;99.90;;;;;;5052692;28;20217;-89
2023/01/22 13:01:08;;;;;;;0.73;0.73;;;4.00;99.90;;;;;;5054609;28;20224;-90
2023/01/22 13:03:34;;;;;;;1.10;1.10;;;4.00;99.90;;;;;;5051350;28;20222;-89
2023/01/22 13:06:02;;;;;;;1.03;1.00;;;4.10;99.90;;;;;;5018025;28;20214;-91
2023/01/22 13:08:41;;;;;;;1.00;1.00;;;4.10;99.90;;;;;;5049508;28;20238;-91
2023/01/22 13:11:10;;;;;;;7.93;1.50;;;4.20;99.90;;;;;;5051763;28;20651;-91
2023/01/22 13:13:44;;;;;;;0.80;0.80;;;4.20;99.90;;;;;;5052416;28;20308;-89
2023/01/22 13:16:18;;;;;;;1.70;1.33;;;4.30;99.90;;;;;;5054369;28;20274;-91
2023/01/22 13:18:48;;;;;;;0.90;0.90;;;4.50;99.90;;;;;;5052302;28;20304;-92